Kego, Minnesota
Current Conditions -  °F | °C
As of 10:36 AM on Sunday 21 Dec 2014 (Local Time) from KXVG Reporting Station
Haze Haze  
Wind Chill: 22°   Ceiling: 600
Heat Index: 30°   Visibility: 4mi
Dew Point: 28°   Wind: 9mph
Humidity: 93%   Direction: 160°SSE
Pressure: 29.78"   Gusts: NA
Location:  47.0632°N, 94.1534°W
Report Text: KXVG 211636Z AUTO 16008KT 4SM BR OVC006 M01/M02 A2978 RMK AO2
Loading
Personal Weather Stations






























Interactive Weather Map New forecast layout! Learn more

10-Day Weather Forecast

Advertisements
Track Severe Weather on mobile